Time;durP1;ratioP1;P1;durP2;ratioP2;P2;SDS_P1;SDS_P2;PMS_P1;PMS_P2;Temp;Humidity;BMP_temperature;BMP_pressure;BME280_temperature;BME280_humidity;BME280_pressure;Samples;Min_cycle;Max_cycle;Signal;HPM_P1;HPM_P2
2023/04/19 00:01:31;;;;;;;7.50;5.95;;;;;;;12.07;56.27;102565.38;5117065;28;20091;-66
2023/04/19 00:03:59;;;;;;;8.57;5.75;;;;;;;12.06;56.16;102563.72;5123290;28;20044;-66
2023/04/19 00:06:29;;;;;;;7.75;5.70;;;;;;;12.05;56.50;102552.09;5114375;28;20069;-66
2023/04/19 00:08:57;;;;;;;9.27;6.40;;;;;;;12.04;56.23;102550.44;5123731;28;20111;-66
2023/04/19 00:11:25;;;;;;;8.63;6.32;;;;;;;12.03;56.43;102554.16;5111148;28;20073;-66
2023/04/19 00:13:52;;;;;;;10.75;6.82;;;;;;;12.03;56.49;102546.06;5119121;28;20064;-66
2023/04/19 00:16:21;;;;;;;7.82;6.30;;;;;;;12.03;56.72;102553.31;5114501;28;20185;-65
2023/04/19 00:18:49;;;;;;;9.40;7.20;;;;;;;12.03;56.64;102545.22;5123300;28;20043;-66
2023/04/19 00:21:17;;;;;;;8.13;6.15;;;;;;;11.93;56.73;102532.06;5114485;28;20532;-66
2023/04/19 00:23:45;;;;;;;7.78;5.65;;;;;;;12.01;56.82;102556.19;5122794;28;20071;-65
2023/04/19 00:26:14;;;;;;;8.13;6.68;;;;;;;12.02;56.77;102552.47;5121936;28;20150;-66
2023/04/19 00:28:42;;;;;;;8.52;6.20;;;;;;;12.03;56.64;102550.63;5118711;28;20048;-66
2023/04/19 00:31:10;;;;;;;9.50;7.15;;;;;;;12.02;56.81;102547.09;5113225;28;20068;-66
2023/04/19 00:33:39;;;;;;;8.68;6.22;;;;;;;12.04;56.61;102557.69;5119744;28;20059;-66
2023/04/19 00:36:07;;;;;;;11.40;7.47;;;;;;;12.03;56.97;102542.53;5115676;28;20072;-66
2023/04/19 00:38:35;;;;;;;10.13;7.00;;;;;;;12.01;56.72;102553.50;5101292;28;20103;-66
2023/04/19 00:41:02;;;;;;;9.00;7.10;;;;;;;11.99;57.05;102541.25;5115555;28;20047;-67
2023/04/19 00:43:30;;;;;;;10.20;7.55;;;;;;;12.02;56.82;102548.94;5120265;28;20050;-66
2023/04/19 00:45:58;;;;;;;10.20;7.60;;;;;;;12.02;56.81;102544.41;5117083;28;20123;-66
2023/04/19 00:48:26;;;;;;;12.45;7.00;;;;;;;12.03;57.04;102542.53;5123202;28;20074;-66
2023/04/19 00:50:55;;;;;;;9.32;7.00;;;;;;;12.03;56.76;102539.84;5114600;28;20052;-66
2023/04/19 00:53:23;;;;;;;9.15;6.72;;;;;;;12.02;56.78;102543.56;5116500;28;20131;-66
2023/04/19 00:55:51;;;;;;;9.25;7.35;;;;;;;12.02;56.95;102544.41;5121000;28;20050;-66
2023/04/19 00:58:19;;;;;;;11.45;7.38;;;;;;;12.02;57.10;102549.78;5121901;28;20047;-66
2023/04/19 01:00:46;;;;;;;9.30;7.13;;;;;;;12.02;56.86;102543.56;5113470;28;20050;-66
2023/04/19 01:03:15;;;;;;;10.82;7.50;;;;;;;12.03;56.72;102545.22;5122432;28;20122;-66
2023/04/19 01:05:43;;;;;;;10.23;6.88;;;;;;;12.02;57.23;102541.69;5119201;28;20341;-66
2023/04/19 01:08:12;;;;;;;12.43;7.30;;;;;;;12.02;57.15;102546.25;5121232;28;20058;-66
2023/04/19 01:10:40;;;;;;;10.27;7.13;;;;;;;12.02;57.09;102543.56;5119160;28;20085;-66
2023/04/19 01:13:08;;;;;;;9.88;7.28;;;;;;;12.01;57.16;102542.72;5122278;28;20047;-66
2023/04/19 01:15:36;;;;;;;14.15;7.40;;;;;;;12.00;57.09;102549.13;5118546;28;20047;-66
2023/04/19 01:18:04;;;;;;;12.30;7.35;;;;;;;11.99;57.08;102539.38;5121651;28;20060;-66
2023/04/19 01:20:32;;;;;;;10.48;7.57;;;;;;;11.99;57.32;102546.63;5121922;28;20047;-66
2023/04/19 01:23:01;;;;;;;9.48;7.00;;;;;;;12.00;57.36;102540.22;5119599;28;20048;-66
2023/04/19 01:25:29;;;;;;;8.15;6.68;;;;;;;12.00;57.19;102548.31;5122128;28;20043;-66
2023/04/19 01:27:57;;;;;;;10.45;7.07;;;;;;;12.00;57.11;102540.22;5119238;28;20350;-66
2023/04/19 01:30:24;;;;;;;9.02;6.63;;;;;;;12.00;57.34;102549.13;5114859;28;20075;-65
2023/04/19 01:32:52;;;;;;;8.50;6.78;;;;;;;11.99;57.33;102544.78;5120299;28;20082;-66
2023/04/19 01:35:20;;;;;;;8.93;6.72;;;;;;;11.99;57.35;102541.25;5122297;28;20062;-66
2023/04/19 01:37:48;;;;;;;8.85;6.95;;;;;;;11.99;57.38;102546.63;5108800;28;20087;-66
2023/04/19 01:40:17;;;;;;;10.43;7.43;;;;;;;11.98;57.29;102540.41;5119641;28;20040;-66
2023/04/19 01:42:45;;;;;;;9.63;7.07;;;;;;;11.99;57.13;102541.25;5117442;28;20036;-66
2023/04/19 01:45:13;;;;;;;11.50;7.47;;;;;;;11.99;57.59;102541.25;5121394;28;20082;-66
2023/04/19 01:47:41;;;;;;;9.07;7.03;;;;;;;11.97;57.60;102544.13;5119135;28;20044;-66
2023/04/19 01:50:09;;;;;;;10.95;8.50;;;;;;;11.98;57.35;102540.41;5118812;28;20120;-66
2023/04/19 01:52:37;;;;;;;11.80;7.60;;;;;;;11.96;57.52;102539.75;5117240;28;20044;-66
2023/04/19 01:55:05;;;;;;;10.50;7.60;;;;;;;11.96;57.49;102533.53;5120063;28;20047;-66
2023/04/19 01:57:34;;;;;;;10.18;7.13;;;;;;;11.96;57.61;102531.69;5121253;28;20069;-66
2023/04/19 02:00:02;;;;;;;10.52;7.38;;;;;;;11.93;57.64;102525.84;5118628;28;20047;-66
2023/04/19 02:02:30;;;;;;;10.30;7.18;;;;;;;11.96;57.66;102526.28;5119412;28;20556;-66
2023/04/19 02:04:58;;;;;;;10.07;7.45;;;;;;;11.95;57.60;102530.00;5110992;28;20071;-66
2023/04/19 02:07:25;;;;;;;12.07;7.88;;;;;;;11.92;57.98;102527.69;5120067;28;20048;-66
2023/04/19 02:09:53;;;;;;;13.65;8.10;;;;;;;11.93;58.02;102521.28;5121625;28;20281;-65
2023/04/19 02:12:21;;;;;;;10.32;7.20;;;;;;;11.93;57.78;102526.66;5119881;28;20044;-65
2023/04/19 02:14:50;;;;;;;10.77;7.32;;;;;;;11.93;57.90;102521.28;5110649;28;20397;-66
2023/04/19 02:17:17;;;;;;;10.43;7.85;;;;;;;11.95;58.07;102521.09;5121220;28;20044;-66
2023/04/19 02:19:45;;;;;;;11.90;6.88;;;;;;;11.94;57.98;102517.56;5117881;28;20063;-66
2023/04/19 02:22:13;;;;;;;11.65;8.15;;;;;;;11.95;58.12;102523.78;5111190;28;20528;-66
2023/04/19 02:24:41;;;;;;;14.85;7.70;;;;;;;11.95;58.19;102524.63;5121153;28;20532;-66
2023/04/19 02:27:08;;;;;;;12.20;8.18;;;;;;;11.96;58.12;102515.50;5120477;28;20325;-66
2023/04/19 02:29:38;;;;;;;11.50;7.65;;;;;;;11.95;58.21;102510.31;5113326;28;20117;-65
2023/04/19 02:32:07;;;;;;;9.48;6.65;;;;;;;11.95;58.23;102508.47;5107128;28;20036;-66
2023/04/19 02:34:35;;;;;;;12.98;8.48;;;;;;;11.96;58.10;102514.69;5113664;28;20097;-66
2023/04/19 02:37:03;;;;;;;11.35;7.10;;;;;;;11.96;57.94;102510.13;5119947;28;20062;-66
2023/04/19 02:39:31;;;;;;;9.55;6.60;;;;;;;11.94;57.91;102508.66;5110605;28;20180;-66
2023/04/19 02:41:59;;;;;;;10.82;7.50;;;;;;;11.95;58.12;102505.75;5111332;28;20079;-65
2023/04/19 02:44:27;;;;;;;11.27;7.70;;;;;;;11.95;58.19;102511.16;5110209;28;20079;-66
2023/04/19 02:46:56;;;;;;;9.68;7.18;;;;;;;11.95;58.54;102508.47;5105060;28;20111;-66
2023/04/19 02:49:25;;;;;;;12.13;8.05;;;;;;;11.95;58.40;102511.16;5120238;28;20047;-66
2023/04/19 02:51:53;;;;;;;11.43;7.25;;;;;;;11.95;58.41;102513.00;5107585;28;20077;-66
2023/04/19 02:54:21;;;;;;;14.40;7.93;;;;;;;11.95;58.86;102513.00;5113613;28;20098;-66
2023/04/19 02:56:48;;;;;;;11.55;7.15;;;;;;;11.95;58.73;102521.09;5112389;28;20126;-66
2023/04/19 02:59:16;;;;;;;10.30;7.32;;;;;;;11.94;58.47;102505.94;5117991;28;20079;-66
2023/04/19 03:01:44;;;;;;;9.98;7.10;;;;;;;11.94;58.48;102509.47;5118111;28;20055;-66
2023/04/19 03:04:11;;;;;;;10.98;7.32;;;;;;;11.93;58.56;102515.06;5102615;28;20071;-66
2023/04/19 03:06:43;;;;;;;13.45;7.68;;;;;;;11.95;58.77;102510.31;5113459;28;20040;-66
2023/04/19 03:09:10;;;;;;;11.35;7.72;;;;;;;11.92;58.90;102508.84;5120693;28;20054;-66
2023/04/19 03:11:39;;;;;;;10.23;6.95;;;;;;;11.93;58.88;102509.66;5115442;28;20131;-66
2023/04/19 03:14:07;;;;;;;10.85;7.68;;;;;;;11.94;58.98;102514.88;5102583;28;20055;-66
2023/04/19 03:16:35;;;;;;;11.48;7.97;;;;;;;11.92;59.04;102502.63;5120366;28;20082;-66
2023/04/19 03:19:03;;;;;;;10.75;7.57;;;;;;;11.92;59.17;102505.31;5123200;28;20043;-66
2023/04/19 03:21:30;;;;;;;11.68;7.68;;;;;;;11.90;58.71;102502.81;5124643;28;20055;-66
2023/04/19 03:23:59;;;;;;;11.77;7.55;;;;;;;11.89;58.81;102495.75;5120056;28;20047;-66
2023/04/19 03:26:27;;;;;;;11.70;8.05;;;;;;;11.89;59.14;102503.81;5116544;28;20078;-66
2023/04/19 03:28:55;;;;;;;11.20;7.80;;;;;;;11.88;58.93;102494.06;5123036;28;20066;-66
2023/04/19 03:31:23;;;;;;;12.45;8.02;;;;;;;11.89;59.02;102495.75;5123545;28;20051;-66
2023/04/19 03:33:50;;;;;;;13.10;8.90;;;;;;;11.88;59.31;102496.78;5120531;28;20093;-66
2023/04/19 03:36:18;;;;;;;11.95;7.60;;;;;;;11.88;58.86;102499.47;5122876;28;20043;-66
2023/04/19 03:38:46;;;;;;;10.60;7.07;;;;;;;11.79;59.25;102479.06;5119260;28;20056;-66
2023/04/19 03:41:23;;;;;;;13.45;7.78;;;;;;;11.85;59.25;102489.06;5121823;28;20044;-66
2023/04/19 03:43:51;;;;;;;13.25;8.40;;;;;;;11.88;59.13;102487.84;5122913;28;20065;-66
2023/04/19 03:46:19;;;;;;;12.30;7.72;;;;;;;11.87;59.14;102495.09;5112199;28;20047;-66
2023/04/19 03:48:47;;;;;;;12.07;7.93;;;;;;;11.86;59.36;102488.03;5120263;28;20115;-66
2023/04/19 03:51:15;;;;;;;11.27;7.20;;;;;;;11.87;59.27;102488.88;5114619;28;20078;-66
2023/04/19 03:53:43;;;;;;;11.00;7.22;;;;;;;11.86;59.29;102488.03;5123599;28;20131;-66
2023/04/19 03:56:11;;;;;;;10.63;7.20;;;;;;;11.86;59.27;102487.22;5123821;28;20050;-65
2023/04/19 03:58:40;;;;;;;11.80;7.88;;;;;;;11.85;59.31;102478.28;5118245;28;20039;-66
2023/04/19 04:01:18;;;;;;;13.48;8.57;;;;;;;11.86;59.64;102489.91;5120235;28;20351;-66
2023/04/19 04:03:45;;;;;;;11.00;7.68;;;;;;;11.85;59.24;102494.44;5119898;28;20404;-66
2023/04/19 04:06:13;;;;;;;10.93;7.55;;;;;;;11.86;59.41;102492.59;5118787;28;20044;-66
2023/04/19 04:08:41;;;;;;;9.98;7.32;;;;;;;11.86;59.63;102497.97;5116892;28;20043;-66
2023/04/19 04:11:09;;;;;;;11.07;7.65;;;;;;;11.84;59.41;102498.19;5120071;28;20055;-66
2023/04/19 04:13:37;;;;;;;10.70;7.13;;;;;;;11.85;59.54;102493.63;5123374;28;20077;-65
2023/04/19 04:16:06;;;;;;;11.75;7.63;;;;;;;11.84;59.56;102495.47;5106839;28;20047;-66
2023/04/19 04:18:34;;;;;;;12.68;7.25;;;;;;;11.84;59.70;102497.34;5119749;28;20079;-66
2023/04/19 04:21:02;;;;;;;10.35;7.15;;;;;;;11.83;59.71;102499.19;5100947;28;20087;-66
2023/04/19 04:23:30;;;;;;;11.98;8.02;;;;;;;11.82;59.96;102497.53;5121752;28;20425;-66
2023/04/19 04:25:59;;;;;;;11.77;7.70;;;;;;;11.81;59.71;102498.56;5115732;28;20078;-66
2023/04/19 04:28:27;;;;;;;10.55;7.80;;;;;;;11.82;59.71;102500.22;5123286;28;20036;-66
2023/04/19 04:30:56;;;;;;;11.48;8.13;;;;;;;11.83;59.64;102498.38;5118387;28;20054;-66
2023/04/19 04:33:26;;;;;;;9.32;6.82;;;;;;;11.83;59.59;102498.38;5121907;28;20052;-66
2023/04/19 04:35:55;;;;;;;12.23;7.78;;;;;;;11.82;59.62;102502.91;5116531;28;20078;-66
2023/04/19 04:38:23;;;;;;;12.48;8.20;;;;;;;11.82;60.01;102502.09;5119520;28;20039;-66
2023/04/19 04:40:53;;;;;;;10.77;7.00;;;;;;;11.80;59.75;102499.56;5118977;28;20421;-66
2023/04/19 04:43:21;;;;;;;10.80;7.90;;;;;;;11.79;59.76;102500.59;5120511;28;20043;-66
2023/04/19 04:45:49;;;;;;;10.13;7.13;;;;;;;11.74;59.97;102498.44;5119884;28;20051;-66
2023/04/19 04:48:17;;;;;;;10.00;7.10;;;;;;;11.78;59.66;102498.94;5109187;28;20759;-66
2023/04/19 04:50:46;;;;;;;9.82;6.97;;;;;;;11.79;59.59;102507.84;5118675;28;20103;-66
2023/04/19 04:53:14;;;;;;;13.75;7.63;;;;;;;11.79;59.88;102507.84;5099652;28;20048;-66
2023/04/19 04:55:42;;;;;;;9.43;6.10;;;;;;;11.69;59.96;102502.72;5122923;28;20042;-65
2023/04/19 04:58:10;;;;;;;11.65;7.00;;;;;;;11.74;59.84;102505.69;5117942;28;20457;-65
2023/04/19 05:00:37;;;;;;;9.57;6.47;;;;;;;11.76;59.84;102516.28;5118375;28;20130;-66
2023/04/19 05:03:05;;;;;;;8.85;7.00;;;;;;;11.73;60.08;102512.94;5120633;28;20051;-65
2023/04/19 05:05:33;;;;;;;10.75;6.80;;;;;;;11.72;60.08;102527.41;5122093;28;20528;-66
2023/04/19 05:08:02;;;;;;;11.98;6.30;;;;;;;11.72;59.86;102516.66;5113035;28;20062;-65
2023/04/19 05:10:30;;;;;;;9.13;6.93;;;;;;;11.72;60.09;102516.66;5105104;28;20074;-66
2023/04/19 05:12:58;;;;;;;9.40;6.40;;;;;;;11.72;59.93;102522.03;5109003;28;20047;-66
2023/04/19 05:15:25;;;;;;;8.40;6.03;;;;;;;11.71;59.85;102525.75;5116645;28;20381;-64
2023/04/19 05:17:53;;;;;;;9.27;5.55;;;;;;;11.71;59.97;102520.38;5108707;28;20044;-66
2023/04/19 05:20:21;;;;;;;9.73;6.72;;;;;;;11.72;59.84;102526.59;5116040;28;20063;-63
2023/04/19 05:22:49;;;;;;;8.70;6.47;;;;;;;11.70;59.67;102528.63;5119405;28;20051;-64
2023/04/19 05:25:18;;;;;;;13.13;6.63;;;;;;;11.70;59.52;102526.78;5101349;28;20438;-66
2023/04/19 05:27:45;;;;;;;8.52;6.20;;;;;;;11.69;59.75;102525.09;5105474;28;20112;-66
2023/04/19 05:30:14;;;;;;;10.82;6.53;;;;;;;11.68;59.44;102520.75;5121699;28;20074;-67
2023/04/19 05:32:42;;;;;;;7.85;5.85;;;;;;;11.68;59.32;102528.00;5111661;28;20424;-64
2023/04/19 05:35:10;;;;;;;7.50;5.10;;;;;;;11.70;59.48;102525.94;5090586;28;20048;-65
2023/04/19 05:37:38;;;;;;;7.93;5.47;;;;;;;11.71;59.13;102527.63;4746099;28;9999884;-64
2023/04/19 05:40:08;;;;;;;9.23;5.65;;;;;;;11.70;59.16;102520.56;5094106;28;20060;-65
2023/04/19 05:42:38;;;;;;;10.27;5.60;;;;;;;11.71;59.31;102528.44;5068708;28;20474;-65
2023/04/19 05:45:07;;;;;;;11.48;5.68;;;;;;;11.73;59.10;102526.41;5095991;28;20068;-68
2023/04/19 05:47:34;;;;;;;9.65;5.50;;;;;;;11.74;58.86;102536.16;5089554;28;20069;-66
2023/04/19 05:50:02;;;;;;;7.20;5.50;;;;;;;11.68;59.08;102528.81;5096194;28;20048;-66
2023/04/19 05:52:30;;;;;;;7.85;4.90;;;;;;;11.67;59.01;102521.75;5086119;28;20105;-66
2023/04/19 05:54:58;;;;;;;8.45;5.55;;;;;;;11.61;58.72;102525.22;5096972;28;20161;-67
2023/04/19 05:57:26;;;;;;;7.97;5.25;;;;;;;11.68;58.72;102528.00;5096348;28;20044;-66
2023/04/19 05:59:55;;;;;;;8.98;5.07;;;;;;;11.71;58.83;102522.22;5097791;28;20055;-69
2023/04/19 06:02:23;;;;;;;10.13;5.30;;;;;;;11.69;58.73;102529.66;5094390;28;20141;-67
2023/04/19 06:04:51;;;;;;;7.47;4.53;;;;;;;11.70;58.63;102528.63;5086657;28;20048;-68
2023/04/19 06:07:19;;;;;;;9.85;4.85;;;;;;;11.70;58.61;102532.16;5096578;28;20058;-68
2023/04/19 06:09:59;;;;;;;8.30;4.90;;;;;;;11.73;58.36;102531.78;5097341;28;20059;-67
2023/04/19 06:12:27;;;;;;;10.48;4.68;;;;;;;11.76;58.63;102529.75;5098835;28;20155;-65
2023/04/19 06:14:56;;;;;;;11.50;4.93;;;;;;;11.81;58.52;102536.25;5086814;28;20111;-66
2023/04/19 06:17:24;;;;;;;7.38;4.80;;;;;;;11.83;58.26;102530.69;5100070;28;20055;-68
2023/04/19 06:19:52;;;;;;;6.57;4.28;;;;;;;11.85;58.30;102542.13;5099818;28;20044;-67
2023/04/19 06:22:21;;;;;;;7.97;4.93;;;;;;;11.85;58.10;102537.56;5097707;28;20457;-67
2023/04/19 06:24:49;;;;;;;8.90;4.20;;;;;;;11.88;58.16;102541.72;5094644;28;20040;-67
2023/04/19 06:27:17;;;;;;;6.82;4.55;;;;;;;11.88;58.09;102545.25;5084768;28;20060;-68
2023/04/19 06:29:45;;;;;;;6.75;3.72;;;;;;;11.87;58.08;102551.69;5092934;28;20139;-67
2023/04/19 06:32:14;;;;;;;6.28;3.88;;;;;;;11.87;58.27;102540.06;5093694;28;20409;-67
2023/04/19 06:34:42;;;;;;;7.90;4.35;;;;;;;11.87;58.23;102531.97;5096269;28;20452;-67
2023/04/19 06:37:10;;;;;;;7.38;3.92;;;;;;;11.87;57.97;102538.22;5100089;28;20064;-67
2023/04/19 06:39:37;;;;;;;7.72;3.78;;;;;;;11.87;58.04;102530.13;5093836;28;20055;-67
2023/04/19 06:42:05;;;;;;;6.43;3.83;;;;;;;11.88;57.76;102537.19;5085343;28;20131;-68
2023/04/19 06:44:33;;;;;;;7.90;4.65;;;;;;;11.89;57.88;102538.03;5104406;28;20540;-66
2023/04/19 06:47:01;;;;;;;8.35;4.53;;;;;;;11.81;57.82;102517.41;5099008;28;20040;-65
2023/04/19 06:49:31;;;;;;;6.57;4.22;;;;;;;11.88;57.66;102528.25;5087358;28;20087;-66
2023/04/19 06:51:59;;;;;;;6.60;3.70;;;;;;;11.90;57.62;102528.91;5084767;28;20040;-68
2023/04/19 06:54:27;;;;;;;6.38;3.80;;;;;;;11.92;57.92;102534.94;5095811;28;20048;-68
2023/04/19 06:56:56;;;;;;;7.00;3.55;;;;;;;11.95;57.60;102530.00;5093429;28;20068;-68
2023/04/19 06:59:27;;;;;;;6.50;4.15;;;;;;;11.97;57.52;102533.34;5093899;28;20094;-66
2023/04/19 07:01:56;;;;;;;7.47;3.78;;;;;;;11.98;57.47;102523.41;5095620;28;20074;-67
2023/04/19 07:04:25;;;;;;;9.45;4.55;;;;;;;11.99;57.61;102525.91;5092347;28;20192;-67
2023/04/19 07:06:54;;;;;;;7.63;4.40;;;;;;;12.03;57.25;102529.06;5103912;28;20468;-67
2023/04/19 07:09:22;;;;;;;8.65;4.60;;;;;;;12.07;56.73;102529.50;5087926;28;20045;-67
2023/04/19 07:11:50;;;;;;;7.72;3.80;;;;;;;12.09;56.95;102530.16;5095312;28;20115;-67
2023/04/19 07:14:18;;;;;;;6.00;4.07;;;;;;;12.10;56.42;102529.13;5090364;28;20054;-67
2023/04/19 07:16:46;;;;;;;6.47;4.20;;;;;;;12.12;56.74;102525.22;5089857;28;20040;-67
2023/04/19 07:19:14;;;;;;;10.65;3.95;;;;;;;12.14;56.48;102528.53;5093828;28;20036;-67
2023/04/19 07:21:41;;;;;;;7.85;4.03;;;;;;;12.15;56.02;102524.81;5094466;28;20049;-67
2023/04/19 07:24:10;;;;;;;7.10;3.90;;;;;;;12.17;55.37;102527.31;5091740;28;20052;-67
2023/04/19 07:26:38;;;;;;;9.00;4.00;;;;;;;12.18;55.87;102524.44;5095931;28;20041;-67
2023/04/19 07:29:06;;;;;;;6.18;3.92;;;;;;;12.22;56.11;102530.28;5099087;28;20622;-67
2023/04/19 07:31:34;;;;;;;9.07;3.85;;;;;;;12.25;55.89;102529.88;5093291;28;20139;-67
2023/04/19 07:34:02;;;;;;;7.22;4.13;;;;;;;12.25;55.68;102541.50;5104801;28;20067;-67
2023/04/19 07:36:30;;;;;;;9.63;4.07;;;;;;;12.25;55.93;102528.03;5106486;28;20043;-67
2023/04/19 07:38:58;;;;;;;6.40;4.22;;;;;;;12.24;55.62;102523.66;5090899;28;20535;-68
2023/04/19 07:41:27;;;;;;;5.38;3.30;;;;;;;12.24;55.60;102523.66;5092033;28;20144;-67
2023/04/19 07:43:55;;;;;;;8.80;4.63;;;;;;;12.23;55.37;102532.78;5096291;28;20410;-65
2023/04/19 07:46:23;;;;;;;7.40;4.47;;;;;;;12.19;55.34;102515.31;5097736;28;20076;-68
2023/04/19 07:48:51;;;;;;;15.75;4.60;;;;;;;12.21;55.23;102529.44;5104639;28;20044;-67
2023/04/19 07:51:19;;;;;;;7.00;4.13;;;;;;;12.20;55.69;102527.75;5092417;28;20049;-67
2023/04/19 07:53:47;;;;;;;9.02;4.32;;;;;;;12.19;55.59;102518.00;5112936;28;20111;-67
2023/04/19 07:56:15;;;;;;;9.15;3.78;;;;;;;12.18;55.32;102527.13;5102749;28;20098;-66
2023/04/19 07:58:44;;;;;;;6.00;3.53;;;;;;;12.19;55.11;102527.97;5099600;28;20045;-64
2023/04/19 08:01:23;;;;;;;9.25;3.70;;;;;;;12.18;55.14;102521.72;5089861;28;20045;-69
2023/04/19 08:03:51;;;;;;;8.05;3.28;;;;;;;12.17;55.00;102514.66;5098275;28;20040;-71
2023/04/19 08:06:20;;;;;;;6.05;3.95;;;;;;;12.25;54.80;102519.09;5091209;28;20112;-67
2023/04/19 08:08:48;;;;;;;6.65;3.47;;;;;;;12.38;54.55;102517.38;5106344;28;20062;-66
2023/04/19 08:11:16;;;;;;;7.53;3.80;;;;;;;12.58;54.29;102522.13;5094410;28;20052;-66
2023/04/19 08:13:45;;;;;;;5.28;3.85;;;;;;;12.76;53.57;102502.75;5113280;28;20044;-67
2023/04/19 08:16:33;;;;;;;5.53;3.80;;;;;;;13.15;52.83;102513.00;5101726;28;20040;-67
2023/04/19 08:19:20;;;;;;;7.00;3.65;;;;;;;13.42;52.47;102514.84;5100671;28;20051;-67
2023/04/19 08:21:48;;;;;;;6.10;3.30;;;;;;;13.66;51.38;102506.25;5098003;28;20083;-66
2023/04/19 08:24:16;;;;;;;5.65;3.72;;;;;;;13.86;50.28;102502.78;5100884;28;20519;-68
2023/04/19 08:26:52;;;;;;;6.28;3.58;;;;;;;14.08;50.12;102506.97;5107190;28;20109;-67
2023/04/19 08:29:21;;;;;;;6.10;3.17;;;;;;;14.32;49.95;102494.75;5123422;28;20150;-67
2023/04/19 08:31:49;;;;;;;5.60;3.25;;;;;;;14.30;49.68;102505.75;5104142;28;20044;-67
2023/04/19 08:34:17;;;;;;;4.88;2.90;;;;;;;14.27;49.63;102506.19;5089698;28;20071;-67
2023/04/19 08:36:45;;;;;;;6.45;3.05;;;;;;;14.11;50.40;102506.56;5090147;28;20036;-68
2023/04/19 08:39:27;;;;;;;6.05;3.38;;;;;;;13.91;50.78;102495.69;5094164;28;20055;-67
2023/04/19 08:42:04;;;;;;;8.27;3.40;;;;;;;13.69;50.75;102502.31;5094622;28;20063;-67
2023/04/19 08:44:42;;;;;;;6.57;2.95;;;;;;;13.50;51.49;102494.94;5102069;28;20047;-67
2023/04/19 08:47:32;;;;;;;6.32;3.75;;;;;;;13.38;51.86;102493.84;5101627;28;20036;-68
2023/04/19 08:50:03;;;;;;;4.63;2.92;;;;;;;13.25;51.75;102491.91;5092135;28;20055;-67
2023/04/19 08:52:51;;;;;;;7.70;3.60;;;;;;;13.16;52.18;102493.94;5111863;28;20095;-67
2023/04/19 08:55:29;;;;;;;6.82;3.30;;;;;;;13.15;52.59;102496.81;5103555;28;20047;-67
2023/04/19 08:57:57;;;;;;;8.85;2.75;;;;;;;13.10;52.63;102491.16;5092357;28;20048;-66
2023/04/19 09:00:26;;;;;;;6.53;3.72;;;;;;;13.07;52.62;102494.25;5098752;28;20062;-66
2023/04/19 09:02:54;;;;;;;6.72;3.35;;;;;;;13.02;52.43;102497.56;5109625;28;20055;-66
2023/04/19 09:05:22;;;;;;;6.60;3.65;;;;;;;12.99;51.76;102492.56;5089494;28;20055;-66
2023/04/19 09:07:51;;;;;;;6.25;3.58;;;;;;;12.94;51.82;102484.22;5100686;28;20040;-67
2023/04/19 09:10:20;;;;;;;6.18;3.58;;;;;;;12.84;51.54;102471.06;5088850;28;20078;-66
2023/04/19 09:13:00;;;;;;;5.55;3.03;;;;;;;12.89;51.33;102483.97;5105128;28;20097;-66
2023/04/19 09:15:43;;;;;;;8.70;3.35;;;;;;;12.82;51.08;102475.84;5081841;28;20047;-66
2023/04/19 09:18:13;;;;;;;4.75;3.40;;;;;;;12.88;50.99;102491.22;5099403;28;20102;-66
2023/04/19 09:20:42;;;;;;;4.95;3.55;;;;;;;12.84;50.22;102479.16;5101126;28;20158;-66
2023/04/19 09:23:12;;;;;;;4.28;3.05;;;;;;;12.88;50.66;102487.69;5102178;28;20044;-68
2023/04/19 09:25:40;;;;;;;5.07;3.30;;;;;;;12.87;51.07;102475.25;5094357;28;20050;-66
2023/04/19 09:28:28;;;;;;;6.18;2.90;;;;;;;12.90;50.98;102472.16;5094255;28;20563;-66
2023/04/19 09:30:58;;;;;;;5.15;3.65;;;;;;;12.90;50.64;102483.78;5082338;28;20131;-67
2023/04/19 09:33:38;;;;;;;7.20;3.40;;;;;;;12.89;49.94;102487.50;5101986;28;20060;-69
2023/04/19 09:36:07;;;;;;;6.38;2.85;;;;;;;12.89;49.88;102479.41;5085802;28;20063;-67
2023/04/19 09:38:47;;;;;;;4.40;2.95;;;;;;;12.90;49.64;102482.94;5084611;28;20049;-66
2023/04/19 09:41:16;;;;;;;4.50;2.85;;;;;;;12.94;49.34;102490.44;5090125;28;20489;-66
2023/04/19 09:43:43;;;;;;;7.95;3.03;;;;;;;12.97;49.46;102489.22;5111830;28;20067;-65
2023/04/19 09:46:34;;;;;;;6.03;2.83;;;;;;;12.95;49.58;102469.69;5091010;28;20052;-66
2023/04/19 09:49:18;;;;;;;4.75;2.88;;;;;;;12.99;49.17;102487.16;5101136;28;20047;-66
2023/04/19 09:52:05;;;;;;;7.78;3.10;;;;;;;13.00;49.52;102486.13;5100863;28;20485;-68
2023/04/19 09:54:33;;;;;;;5.50;2.47;;;;;;;13.06;49.51;102476.41;5097923;28;20066;-65
2023/04/19 09:57:01;;;;;;;4.57;2.88;;;;;;;13.05;49.14;102472.88;5105803;28;20047;-68
2023/04/19 09:59:29;;;;;;;4.50;2.63;;;;;;;13.04;48.98;102463.94;5103603;28;20058;-67
2023/04/19 10:02:00;;;;;;;5.38;2.78;;;;;;;13.07;48.69;102481.59;5089508;28;20115;-65
2023/04/19 10:04:29;;;;;;;4.22;2.80;;;;;;;12.98;47.02;102472.00;5088809;28;20775;-66
2023/04/19 10:07:17;;;;;;;5.40;2.78;;;;;;;13.09;49.90;102474.13;5115082;28;20044;-64
2023/04/19 10:09:59;;;;;;;8.57;3.67;;;;;;;13.14;50.62;102477.06;5105152;28;20076;-64
2023/04/19 10:12:32;;;;;;;7.00;4.35;;;;;;;13.17;50.50;102475.88;5103902;28;20225;-65
2023/04/19 10:15:05;;;;;;;4.13;2.45;;;;;;;13.21;50.35;102477.16;5101395;28;20052;-65
2023/04/19 10:17:35;;;;;;;6.32;2.45;;;;;;;13.23;49.44;102477.78;5091209;28;20045;-67
2023/04/19 10:20:06;;;;;;;12.13;2.92;;;;;;;13.24;47.30;102474.03;5083028;28;20434;-67
2023/04/19 10:22:36;;;;;;;6.85;2.92;;;;;;;13.22;46.98;102478.81;5089358;28;20339;-67
2023/04/19 10:25:14;;;;;;;4.30;2.28;;;;;;;13.19;45.79;102471.13;5084657;28;20060;-68
2023/04/19 10:27:45;;;;;;;7.53;2.75;;;;;;;13.19;46.23;102473.81;5108857;28;20127;-67
2023/04/19 10:30:18;;;;;;;8.60;2.65;;;;;;;13.20;46.73;102473.59;5095495;28;20052;-67
2023/04/19 10:32:52;;;;;;;4.57;2.58;;;;;;;13.24;47.91;102466.78;5086406;28;20056;-67
2023/04/19 10:35:22;;;;;;;4.65;2.22;;;;;;;13.27;46.24;102469.06;5082683;28;20063;-67
2023/04/19 10:38:06;;;;;;;5.30;2.85;;;;;;;13.28;45.27;102468.03;5094977;28;20036;-67
2023/04/19 10:40:59;;;;;;;5.25;2.33;;;;;;;13.29;46.03;102464.31;5097770;28;20058;-68
2023/04/19 10:43:28;;;;;;;3.10;1.95;;;;;;;13.30;44.96;102467.84;5085747;28;20048;-69
2023/04/19 10:46:00;;;;;;;5.93;1.90;;;;;;;13.31;45.00;102464.94;5092194;28;20112;-68
2023/04/19 10:48:42;;;;;;;3.13;2.15;;;;;;;13.32;43.46;102460.38;5093778;28;20051;-68
2023/04/19 10:51:15;;;;;;;6.03;1.95;;;;;;;13.33;43.99;102451.25;5091967;28;20103;-68
2023/04/19 10:53:51;;;;;;;6.18;2.67;;;;;;;13.38;44.53;102450.66;5099227;28;20474;-69
2023/04/19 10:56:20;;;;;;;3.63;2.08;;;;;;;13.42;46.02;102449.19;5097109;28;20416;-68
2023/04/19 10:59:20;;;;;;;7.65;2.17;;;;;;;13.46;46.24;102450.47;5096597;28;20563;-68
2023/04/19 11:01:53;;;;;;;11.63;2.42;;;;;;;13.52;46.22;102445.09;5091322;28;20048;-68
2023/04/19 11:04:45;;;;;;;5.68;2.17;;;;;;;13.61;47.71;102434.94;5097154;28;20082;-69
2023/04/19 11:07:13;;;;;;;5.05;1.88;;;;;;;13.64;46.42;102442.63;5086527;28;20616;-69
2023/04/19 11:09:46;;;;;;;2.35;1.75;;;;;;;13.64;44.88;102419.16;5095022;28;20051;-71
2023/04/19 11:12:14;;;;;;;3.90;2.05;;;;;;;13.67;44.92;102439.53;5079864;28;20062;-67
2023/04/19 11:14:44;;;;;;;3.28;1.55;;;;;;;13.68;44.05;102431.22;5087419;28;20075;-67
2023/04/19 11:17:16;;;;;;;3.33;1.95;;;;;;;13.72;46.55;102437.06;5083822;28;20074;-67
2023/04/19 11:19:53;;;;;;;6.85;1.67;;;;;;;13.76;45.95;102432.91;5098176;28;20084;-68
2023/04/19 11:22:25;;;;;;;4.47;1.20;;;;;;;13.78;42.51;102433.53;5102837;28;20051;-68
2023/04/19 11:24:53;;;;;;;2.65;1.40;;;;;;;13.77;42.64;102422.94;5091164;28;20047;-68
2023/04/19 11:27:21;;;;;;;3.08;1.70;;;;;;;13.81;43.86;102432.28;5102502;28;20048;-67
2023/04/19 11:29:49;;;;;;;7.13;1.50;;;;;;;13.84;45.90;102419.22;5098955;28;20078;-67
2023/04/19 11:32:18;;;;;;;5.63;1.63;;;;;;;13.89;43.87;102426.66;5101292;28;20044;-67
2023/04/19 11:34:47;;;;;;;3.33;1.60;;;;;;;13.90;42.83;102422.94;5108593;28;20047;-67